createdAt,value
2018-05-27T00:01:07.536Z,98496.09
2018-05-27T00:03:35.760Z,98494.16
2018-05-27T00:06:03.987Z,98481.73
2018-05-27T00:08:32.234Z,98484.23
2018-05-27T00:11:01.236Z,98476.70
2018-05-27T00:13:29.454Z,98472.84
2018-05-27T00:15:57.723Z,98471.09
2018-05-27T00:18:25.943Z,98470.00
2018-05-27T00:20:54.162Z,98464.09
2018-05-27T00:23:22.417Z,98454.98
2018-05-27T00:25:50.651Z,98454.02
2018-05-27T00:28:18.871Z,98450.09
2018-05-27T00:30:47.867Z,98451.69
2018-05-27T00:33:16.091Z,98452.20
2018-05-27T00:35:44.335Z,98444.03
2018-05-27T00:38:12.608Z,98445.81
2018-05-27T00:40:40.831Z,98444.32
2018-05-27T00:43:09.055Z,98438.17
2018-05-27T00:45:37.619Z,98436.14
2018-05-27T00:48:06.607Z,98433.79
2018-05-27T00:50:34.831Z,98425.96
2018-05-27T00:53:04.003Z,98419.51
2018-05-27T00:55:32.227Z,98417.88
2018-05-27T00:58:00.457Z,98408.03
2018-05-27T01:00:28.716Z,98413.23
2018-05-27T01:02:57.709Z,98412.01
2018-05-27T01:05:25.926Z,98410.67
2018-05-27T01:07:54.171Z,98405.73
2018-05-27T01:10:22.399Z,98401.77
2018-05-27T01:12:50.618Z,98410.05
2018-05-27T01:15:18.895Z,98409.31
2018-05-27T01:17:47.158Z,98411.10
2018-05-27T01:20:15.375Z,98403.91
2018-05-27T01:22:43.638Z,98397.55
2018-05-27T01:25:11.879Z,98391.83
2018-05-27T01:27:40.100Z,98386.19
2018-05-27T01:30:08.360Z,98393.20
2018-05-27T01:32:36.583Z,98395.17
2018-05-27T01:35:04.815Z,98398.14
2018-05-27T01:37:33.066Z,98389.81
2018-05-27T01:40:02.055Z,98388.73
2018-05-27T01:42:30.283Z,98380.55
2018-05-27T01:44:58.547Z,98382.92
2018-05-27T01:47:26.776Z,98378.95
2018-05-27T01:49:55.006Z,98375.45
2018-05-27T01:52:23.239Z,98377.17
2018-05-27T01:54:51.471Z,98373.66
2018-05-27T01:57:19.711Z,98373.84
2018-05-27T01:59:47.933Z,98376.41
2018-05-27T02:02:16.162Z,98373.91
2018-05-27T02:04:44.387Z,98368.79
2018-05-27T02:07:12.638Z,98364.47
2018-05-27T02:09:40.899Z,98369.19
2018-05-27T02:12:09.132Z,98375.84
2018-05-27T02:14:37.364Z,98377.23
2018-05-27T02:17:06.139Z,98376.64
2018-05-27T02:19:34.366Z,98370.69
2018-05-27T02:22:02.587Z,98379.96
2018-05-27T02:24:30.839Z,98381.35
2018-05-27T02:26:59.067Z,98381.12
2018-05-27T02:29:27.287Z,98379.75
2018-05-27T02:31:56.336Z,98377.17
2018-05-27T02:34:24.567Z,98371.52
2018-05-27T02:36:52.781Z,98366.73
2018-05-27T02:39:21.279Z,98366.11
2018-05-27T02:41:49.507Z,98370.66
2018-05-27T02:44:18.516Z,98376.87
2018-05-27T02:46:46.791Z,98372.72
2018-05-27T02:49:15.012Z,98376.22
2018-05-27T02:51:43.241Z,98374.89
2018-05-27T02:54:11.519Z,98367.97
2018-05-27T02:56:39.744Z,98363.55
2018-05-27T02:59:07.967Z,98362.11
2018-05-27T03:01:36.742Z,98361.21
2018-05-27T03:04:05.727Z,98368.53
2018-05-27T03:06:33.956Z,98360.39
2018-05-27T03:09:02.448Z,98368.66
2018-05-27T03:11:30.678Z,98355.91
2018-05-27T03:13:58.899Z,98351.80
2018-05-27T03:16:27.148Z,98347.47
2018-05-27T03:18:55.382Z,98355.47
2018-05-27T03:21:23.603Z,98358.75
2018-05-27T03:23:51.865Z,98352.52
2018-05-27T03:26:20.826Z,98346.91
2018-05-27T03:28:49.071Z,98355.03
2018-05-27T03:31:17.305Z,98353.16
2018-05-27T03:33:45.524Z,98346.12
2018-05-27T03:36:13.751Z,98344.48
2018-05-27T03:38:41.974Z,98343.22
2018-05-27T03:41:10.211Z,98343.70
2018-05-27T03:43:38.442Z,98343.50
2018-05-27T03:46:06.674Z,98347.91
2018-05-27T03:48:34.923Z,98346.55
2018-05-27T03:51:03.147Z,98346.00
2018-05-27T03:53:31.375Z,98352.34
2018-05-27T03:55:59.615Z,98350.54
2018-05-27T03:58:27.838Z,98344.97
2018-05-27T04:00:56.068Z,98344.64
2018-05-27T04:03:24.317Z,98347.16
2018-05-27T04:06:09.967Z,98354.80
2018-05-27T04:08:38.203Z,98357.20
2018-05-27T04:11:06.424Z,98357.45
2018-05-27T04:13:34.649Z,98358.25
2018-05-27T04:16:03.674Z,98365.16
2018-05-27T04:18:32.663Z,98364.55
2018-05-27T04:21:00.896Z,98365.23
2018-05-27T04:23:29.139Z,98357.91
2018-05-27T04:25:57.372Z,98358.64
2018-05-27T04:28:25.609Z,98364.97
2018-05-27T04:30:53.828Z,98362.26
2018-05-27T04:33:22.050Z,98359.91
2018-05-27T04:35:50.291Z,98358.12
2018-05-27T04:38:19.284Z,98353.53
2018-05-27T04:40:47.512Z,98362.53
2018-05-27T04:43:15.811Z,98359.68
2018-05-27T04:45:44.040Z,98360.53
2018-05-27T04:48:12.270Z,98360.43
2018-05-27T04:50:40.532Z,98368.42
2018-05-27T04:53:08.764Z,98365.25
2018-05-27T04:55:36.992Z,98364.27
2018-05-27T04:58:05.252Z,98363.45
2018-05-27T05:00:33.479Z,98364.13
2018-05-27T05:03:02.467Z,98367.30
2018-05-27T05:05:30.706Z,98371.61
2018-05-27T05:07:58.939Z,98374.14
2018-05-27T05:10:27.168Z,98377.69
2018-05-27T05:12:55.426Z,98380.37
2018-05-27T05:15:23.656Z,98379.72
2018-05-27T05:17:51.878Z,98378.03
2018-05-27T05:20:20.123Z,98380.39
2018-05-27T05:22:48.347Z,98381.17
2018-05-27T05:25:16.575Z,98382.20
2018-05-27T05:27:44.838Z,98383.25
2018-05-27T05:30:13.046Z,98384.56
2018-05-27T05:32:41.271Z,98379.96
2018-05-27T05:35:10.299Z,98380.85
2018-05-27T05:37:38.528Z,98384.86
2018-05-27T05:40:06.757Z,98384.22
2018-05-27T05:42:34.999Z,98388.28
2018-05-27T05:45:03.986Z,98374.77
2018-05-27T05:47:32.218Z,98380.97
2018-05-27T05:50:00.443Z,98383.55
2018-05-27T05:52:29.449Z,98388.98
2018-05-27T05:54:57.672Z,98399.00
2018-05-27T05:57:25.940Z,98390.16
2018-05-27T05:59:54.170Z,98387.46
2018-05-27T06:02:23.150Z,98389.11
2018-05-27T06:04:51.391Z,98397.15
2018-05-27T06:07:19.619Z,98395.86
2018-05-27T06:09:48.630Z,98401.06
2018-05-27T06:12:16.879Z,98391.50
2018-05-27T06:14:45.107Z,98390.19
2018-05-27T06:17:13.328Z,98393.95
2018-05-27T06:19:42.379Z,98401.39
2018-05-27T06:22:10.575Z,98400.66
2018-05-27T06:24:38.804Z,98406.73
2018-05-27T06:27:07.050Z,98405.77
2018-05-27T06:29:36.038Z,98404.38
2018-05-27T06:32:04.275Z,98402.84
2018-05-27T06:34:32.710Z,98416.53
2018-05-27T06:37:00.894Z,98414.13
2018-05-27T06:39:29.110Z,98420.91
2018-05-27T06:41:57.343Z,98417.84
2018-05-27T06:44:25.563Z,98422.94
2018-05-27T06:46:53.823Z,98431.06
2018-05-27T06:49:22.048Z,98426.61
2018-05-27T06:51:50.271Z,98424.96
2018-05-27T06:54:18.502Z,98427.77
2018-05-27T06:56:47.491Z,98417.80
2018-05-27T06:59:15.734Z,98427.78
2018-05-27T07:01:43.958Z,98423.34
2018-05-27T07:04:12.947Z,98423.96
2018-05-27T07:06:41.197Z,98428.42
2018-05-27T07:09:09.419Z,98420.99
2018-05-27T07:11:37.648Z,98419.50
2018-05-27T07:14:05.895Z,98418.88
2018-05-27T07:16:34.107Z,98423.70
2018-05-27T07:19:02.335Z,98415.61
2018-05-27T07:21:30.572Z,98414.55
2018-05-27T07:23:59.556Z,98411.92
2018-05-27T07:26:27.780Z,98405.84
2018-05-27T07:28:56.035Z,98404.94
2018-05-27T07:31:24.279Z,98401.23
2018-05-27T07:33:52.477Z,98399.66
2018-05-27T07:36:20.715Z,98394.77
2018-05-27T07:38:48.936Z,98405.16
2018-05-27T07:41:17.191Z,98402.02
2018-05-27T07:43:46.207Z,98388.84
2018-05-27T07:46:15.203Z,98403.28
2018-05-27T07:48:43.427Z,98398.41
2018-05-27T07:51:11.687Z,98400.56
2018-05-27T07:53:39.909Z,98404.62
2018-05-27T07:56:08.127Z,98399.76
2018-05-27T07:58:36.391Z,98397.80
2018-05-27T08:01:04.642Z,98409.52
2018-05-27T08:03:33.666Z,98411.02
2018-05-27T08:06:01.904Z,98401.20
2018-05-27T08:08:30.127Z,98399.60
2018-05-27T08:10:58.347Z,98406.27
2018-05-27T08:13:26.587Z,98410.95
2018-05-27T08:15:54.807Z,98413.78
2018-05-27T08:18:23.035Z,98409.64
2018-05-27T08:20:51.290Z,98417.64
2018-05-27T08:23:19.516Z,98408.09
2018-05-27T08:25:47.732Z,98416.08
2018-05-27T08:28:15.991Z,98410.99
2018-05-27T08:30:44.217Z,98412.95
2018-05-27T08:33:12.442Z,98412.91
2018-05-27T08:35:40.679Z,98411.73
2018-05-27T08:38:08.903Z,98407.25
2018-05-27T08:40:37.128Z,98412.85
2018-05-27T08:43:05.381Z,98417.56
2018-05-27T08:45:33.617Z,98419.54
2018-05-27T08:48:01.832Z,98421.41
2018-05-27T08:50:30.287Z,98422.31
2018-05-27T08:52:58.502Z,98426.08
2018-05-27T08:55:26.723Z,98431.50
2018-05-27T08:57:55.741Z,98422.87
2018-05-27T09:00:23.954Z,98428.45
2018-05-27T09:02:52.179Z,98429.63
2018-05-27T09:05:21.191Z,98431.27
2018-05-27T09:07:49.422Z,98429.19
2018-05-27T09:10:17.647Z,98421.14
2018-05-27T09:12:45.911Z,98428.48
2018-05-27T09:15:14.911Z,98429.05
2018-05-27T09:17:43.110Z,98429.25
2018-05-27T09:20:11.371Z,98428.94
2018-05-27T09:22:39.600Z,98429.73
2018-05-27T09:25:07.830Z,98423.60
2018-05-27T09:27:36.067Z,98426.53
2018-05-27T09:30:04.283Z,98422.92
2018-05-27T09:32:32.567Z,98424.16
2018-05-27T09:35:00.803Z,98426.34
2018-05-27T09:37:29.779Z,98424.69
2018-05-27T09:39:58.007Z,98419.72
2018-05-27T09:42:26.264Z,98423.16
2018-05-27T09:44:54.476Z,98424.94
2018-05-27T09:47:22.696Z,98422.24
2018-05-27T09:49:51.251Z,98416.09
2018-05-27T09:52:19.476Z,98416.14
2018-05-27T09:54:47.687Z,98408.53
2018-05-27T09:57:15.946Z,98411.89
2018-05-27T09:59:44.168Z,98411.98
2018-05-27T10:02:12.388Z,98406.00
2018-05-27T10:04:40.644Z,98403.86
2018-05-27T10:07:08.859Z,98401.53
2018-05-27T10:09:37.077Z,98398.25
2018-05-27T10:12:06.103Z,98395.74
2018-05-27T10:14:34.315Z,98393.55
2018-05-27T10:17:02.539Z,98389.73
2018-05-27T10:19:31.559Z,98382.67
2018-05-27T10:21:59.777Z,98378.14
2018-05-27T10:24:28.000Z,98373.51
2018-05-27T10:26:56.268Z,98379.50
2018-05-27T10:29:24.487Z,98371.59
2018-05-27T10:31:52.707Z,98376.82
2018-05-27T10:34:20.959Z,98375.77
2018-05-27T10:36:49.187Z,98373.00
2018-05-27T10:39:17.466Z,98370.21
2018-05-27T10:41:45.654Z,98363.17
2018-05-27T10:44:13.876Z,98358.85
2018-05-27T10:46:42.103Z,98350.72
2018-05-27T10:49:10.370Z,98361.14
2018-05-27T10:51:38.592Z,98359.56
2018-05-27T10:54:06.811Z,98347.71
2018-05-27T10:56:35.830Z,98343.93
2018-05-27T10:59:04.056Z,98348.27
2018-05-27T11:01:32.294Z,98351.88
2018-05-27T11:04:00.532Z,98345.09
2018-05-27T11:06:29.528Z,98342.56
2018-05-27T11:08:57.751Z,98337.18
2018-05-27T11:11:25.983Z,98330.09
2018-05-27T11:13:54.198Z,98322.91
2018-05-27T11:16:22.419Z,98317.16
2018-05-27T11:18:50.667Z,98317.84
2018-05-27T11:21:18.894Z,98321.50
2018-05-27T11:23:47.119Z,98327.88
2018-05-27T11:26:15.375Z,98325.83
2018-05-27T11:28:43.597Z,98314.09
2018-05-27T11:31:11.815Z,98325.13
2018-05-27T11:33:40.094Z,98320.90
2018-05-27T11:36:08.311Z,98304.91
2018-05-27T11:38:36.526Z,98302.84
2018-05-27T11:41:04.795Z,98297.73
2018-05-27T11:43:33.003Z,98297.38
2018-05-27T11:46:01.231Z,98298.24
2018-05-27T11:48:30.253Z,98294.16
2018-05-27T11:50:58.472Z,98290.81
2018-05-27T11:53:26.699Z,98288.34
2018-05-27T11:55:55.197Z,98274.59
2018-05-27T11:58:23.406Z,98267.91
2018-05-27T12:00:51.627Z,98269.42
2018-05-27T12:03:19.891Z,98260.94
2018-05-27T12:05:48.102Z,98255.60
2018-05-27T12:08:16.334Z,98253.12
2018-05-27T12:10:44.584Z,98251.02
2018-05-27T12:13:12.807Z,98251.30
2018-05-27T12:15:41.030Z,98244.83
2018-05-27T12:18:09.287Z,98242.81
2018-05-27T12:20:37.512Z,98245.07
2018-05-27T12:23:06.496Z,98239.52
2018-05-27T12:25:34.746Z,98233.88
2018-05-27T12:28:02.975Z,98230.59
2018-05-27T12:30:31.196Z,98230.17
2018-05-27T12:32:59.458Z,98230.39
2018-05-27T12:35:27.664Z,98229.68
2018-05-27T12:37:55.889Z,98224.87
2018-05-27T12:40:24.147Z,98234.38
2018-05-27T12:42:53.196Z,98227.13
2018-05-27T12:45:21.347Z,98224.13
2018-05-27T12:47:49.574Z,98222.40
2018-05-27T12:50:17.795Z,98230.39
2018-05-27T12:52:46.015Z,98230.59
2018-05-27T12:55:14.270Z,98231.86
2018-05-27T12:57:42.497Z,98228.32
2018-05-27T13:00:11.483Z,98225.37
2018-05-27T13:02:39.722Z,98228.11
2018-05-27T13:05:07.942Z,98221.04
2018-05-27T13:07:36.923Z,98226.80
2018-05-27T13:10:05.179Z,98224.31
2018-05-27T13:12:33.770Z,98217.63
2018-05-27T13:15:02.003Z,98219.52
2018-05-27T13:17:30.219Z,98219.44
2018-05-27T13:19:58.434Z,98220.14
2018-05-27T13:22:26.690Z,98225.59
2018-05-27T13:24:55.670Z,98226.70
2018-05-27T13:27:23.893Z,98221.62
2018-05-27T13:29:52.127Z,98235.45
2018-05-27T13:32:21.114Z,98230.28
2018-05-27T13:34:49.331Z,98233.56
2018-05-27T13:37:17.578Z,98231.98
2018-05-27T13:39:46.558Z,98231.13
2018-05-27T13:42:14.774Z,98240.05
2018-05-27T13:44:43.003Z,98237.03
2018-05-27T13:47:11.218Z,98243.73
2018-05-27T13:49:39.450Z,98240.66
2018-05-27T13:52:07.667Z,98237.08
2018-05-27T13:54:36.065Z,98236.25
2018-05-27T13:57:04.283Z,98230.55
2018-05-27T13:59:32.507Z,98221.95
2018-05-27T14:02:00.743Z,98222.22
2018-05-27T14:04:28.967Z,98225.86
2018-05-27T14:06:57.187Z,98213.10
2018-05-27T14:09:25.439Z,98218.75
2018-05-27T14:11:53.658Z,98219.19
2018-05-27T14:14:22.642Z,98215.16
2018-05-27T14:16:50.899Z,98212.01
2018-05-27T14:19:19.118Z,98215.07
2018-05-27T14:21:47.343Z,98211.94
2018-05-27T14:24:15.661Z,98197.61
2018-05-27T14:26:43.831Z,98197.38
2018-05-27T14:29:12.059Z,98205.34
2018-05-27T14:31:40.302Z,98211.30
2018-05-27T14:34:08.539Z,98209.89
2018-05-27T14:36:36.755Z,98203.56
2018-05-27T14:39:05.679Z,98204.83
2018-05-27T14:41:33.899Z,98195.56
2018-05-27T14:44:02.123Z,98193.34
2018-05-27T14:46:30.367Z,98190.72
2018-05-27T14:48:58.587Z,98191.25
2018-05-27T14:51:26.807Z,98192.84
2018-05-27T14:53:55.084Z,98193.78
2018-05-27T14:56:23.307Z,98195.09
2018-05-27T14:58:51.541Z,98195.42
2018-05-27T15:01:20.561Z,98194.81
2018-05-27T15:03:48.786Z,98201.92
2018-05-27T15:06:16.999Z,98189.72
2018-05-27T15:08:45.264Z,98190.80
2018-05-27T15:11:14.244Z,98190.41
2018-05-27T15:13:42.459Z,98187.61
2018-05-27T15:16:10.734Z,98187.88
2018-05-27T15:18:38.974Z,98188.31
2018-05-27T15:21:07.175Z,98189.07
2018-05-27T15:23:35.427Z,98186.27
2018-05-27T15:26:03.657Z,98189.73
2018-05-27T15:28:31.881Z,98183.73
2018-05-27T15:31:00.899Z,98190.48
2018-05-27T15:33:29.119Z,98189.16
2018-05-27T15:35:57.343Z,98189.29
2018-05-27T15:38:25.597Z,98188.26
2018-05-27T15:40:54.583Z,98186.12
2018-05-27T15:43:22.803Z,98188.64
2018-05-27T15:45:51.034Z,98184.20
2018-05-27T15:48:20.048Z,98185.56
2018-05-27T15:50:48.235Z,98180.64
2018-05-27T15:53:16.505Z,98171.87
2018-05-27T15:55:44.723Z,98172.18
2018-05-27T15:58:12.943Z,98163.73
2018-05-27T16:00:41.235Z,98155.44
2018-05-27T16:03:09.458Z,98150.23
2018-05-27T16:05:37.679Z,98145.25
2018-05-27T16:08:06.679Z,98135.76
2018-05-27T16:10:34.903Z,98129.14
2018-05-27T16:13:03.886Z,98125.73
2018-05-27T16:15:32.138Z,98126.13
2018-05-27T16:18:00.363Z,98129.64
2018-05-27T16:20:28.575Z,98129.08
2018-05-27T16:22:56.854Z,98126.09
2018-05-27T16:25:25.832Z,98123.70
2018-05-27T16:27:54.048Z,98128.78
2018-05-27T16:30:22.275Z,98115.00
2018-05-27T16:32:51.267Z,98120.65
2018-05-27T16:35:19.485Z,98119.21
2018-05-27T16:37:47.736Z,98109.66
2018-05-27T16:40:15.962Z,98112.04
2018-05-27T16:42:44.183Z,98113.27
2018-05-27T16:45:12.438Z,98111.48
2018-05-27T16:47:40.659Z,98111.46
2018-05-27T16:50:08.883Z,98109.16
2018-05-27T16:52:37.137Z,98123.94
2018-05-27T16:55:05.351Z,98122.52
2018-05-27T16:57:33.571Z,98120.57
2018-05-27T17:00:01.834Z,98112.77
2018-05-27T17:02:30.083Z,98105.28
2018-05-27T17:04:59.062Z,98107.46
2018-05-27T17:07:27.323Z,98108.04
2018-05-27T17:09:55.548Z,98106.91
2018-05-27T17:12:23.789Z,98107.70
2018-05-27T17:14:52.032Z,98106.64
2018-05-27T17:17:20.254Z,98101.39
2018-05-27T17:19:48.479Z,98105.89
2018-05-27T17:22:16.720Z,98108.11
2018-05-27T17:24:44.939Z,98102.90
2018-05-27T17:27:13.163Z,98103.63
2018-05-27T17:29:41.403Z,98098.23
2018-05-27T17:32:09.621Z,98099.28
2018-05-27T17:34:38.612Z,98102.05
2018-05-27T17:37:06.867Z,98099.58
2018-05-27T17:39:35.088Z,98101.78
2018-05-27T17:42:03.307Z,98104.99
2018-05-27T17:44:31.550Z,98108.13
2018-05-27T17:46:59.778Z,98112.49
2018-05-27T17:49:27.989Z,98110.95
2018-05-27T17:51:56.231Z,98119.36
2018-05-27T17:54:25.238Z,98122.67
2018-05-27T17:56:53.441Z,98123.74
2018-05-27T17:59:21.682Z,98131.05
2018-05-27T18:01:50.660Z,98131.81
2018-05-27T18:04:18.887Z,98138.53
2018-05-27T18:06:47.130Z,98135.66
2018-05-27T18:09:16.110Z,98140.52
2018-05-27T18:11:44.334Z,98140.03
2018-05-27T18:14:12.575Z,98142.47
2018-05-27T18:16:41.554Z,98145.25
2018-05-27T18:19:09.779Z,98142.55
2018-05-27T18:21:38.020Z,98148.19
2018-05-27T18:24:07.015Z,98149.70
2018-05-27T18:26:35.251Z,98143.34
2018-05-27T18:29:03.471Z,98133.18
2018-05-27T18:31:31.687Z,98133.64
2018-05-27T18:33:59.947Z,98124.85
2018-05-27T18:36:28.167Z,98122.66
2018-05-27T18:38:56.387Z,98119.33
2018-05-27T18:41:24.647Z,98106.89
2018-05-27T18:43:53.631Z,98100.33
2018-05-27T18:46:21.856Z,98089.26
2018-05-27T18:48:50.107Z,98091.62
2018-05-27T18:51:18.327Z,98095.03
2018-05-27T18:53:46.550Z,98100.87
2018-05-27T18:56:15.049Z,98100.59
2018-05-27T18:58:43.264Z,98094.87
2018-05-27T19:01:11.503Z,98096.56
2018-05-27T19:03:39.731Z,98099.29
2018-05-27T19:06:08.710Z,98103.22
2018-05-27T19:08:36.963Z,98120.26
2018-05-27T19:11:05.183Z,98132.47
2018-05-27T19:13:34.185Z,98132.52
2018-05-27T19:16:02.940Z,98145.17
2018-05-27T19:18:31.159Z,98148.13
2018-05-27T19:20:59.383Z,98147.54
2018-05-27T19:23:27.647Z,98152.27
2018-05-27T19:25:55.875Z,98162.77
2018-05-27T19:28:24.865Z,98171.08
2018-05-27T19:30:53.111Z,98172.91
2018-05-27T19:33:21.331Z,98182.05
2018-05-27T19:35:49.559Z,98185.95
2018-05-27T19:38:17.816Z,98192.03
2018-05-27T19:40:46.043Z,98201.64
2018-05-27T19:43:14.266Z,98207.74
2018-05-27T19:45:42.527Z,98207.11
2018-05-27T19:48:10.751Z,98206.98
2018-05-27T19:50:38.970Z,98216.42
2018-05-27T19:53:07.231Z,98216.92
2018-05-27T19:55:35.459Z,98228.31
2018-05-27T19:58:03.687Z,98232.28
2018-05-27T20:00:31.928Z,98229.62
2018-05-27T20:03:00.151Z,98236.79
2018-05-27T20:05:28.374Z,98235.50
2018-05-27T20:07:56.639Z,98239.25
2018-05-27T20:10:24.872Z,98238.48
2018-05-27T20:12:53.103Z,98243.38
2018-05-27T20:15:21.360Z,98245.60
2018-05-27T20:17:49.583Z,98237.31
2018-05-27T20:20:17.811Z,98235.48
2018-05-27T20:22:46.067Z,98237.45
2018-05-27T20:25:14.303Z,98241.99
2018-05-27T20:27:43.301Z,98243.03
2018-05-27T20:30:11.571Z,98235.92
2018-05-27T20:32:39.799Z,98244.34
2018-05-27T20:35:08.032Z,98232.28
2018-05-27T20:37:37.054Z,98238.25
2018-05-27T20:40:05.291Z,98236.27
2018-05-27T20:42:33.638Z,98232.23
2018-05-27T20:45:01.888Z,98240.79
2018-05-27T20:47:30.100Z,98234.58
2018-05-27T20:49:58.348Z,98238.62
2018-05-27T20:52:26.576Z,98239.64
2018-05-27T20:54:55.603Z,98235.25
2018-05-27T20:57:23.821Z,98231.58
2018-05-27T20:59:52.051Z,98230.39
2018-05-27T21:02:20.287Z,98235.40
2018-05-27T21:04:48.506Z,98235.58
2018-05-27T21:07:16.736Z,98234.29
2018-05-27T21:09:44.999Z,98232.00
2018-05-27T21:12:13.226Z,98235.06
2018-05-27T21:14:41.456Z,98237.93
2018-05-27T21:17:09.707Z,98233.25
2018-05-27T21:19:37.940Z,98236.66
2018-05-27T21:22:06.172Z,98235.66
2018-05-27T21:24:34.420Z,98234.87
2018-05-27T21:27:02.651Z,98231.78
2018-05-27T21:29:30.871Z,98231.48
2018-05-27T21:31:59.135Z,98234.64
2018-05-27T21:34:27.367Z,98232.80
2018-05-27T21:36:55.590Z,98230.98
2018-05-27T21:39:23.841Z,98232.56
2018-05-27T21:41:52.839Z,98228.95
2018-05-27T21:44:21.087Z,98229.84
2018-05-27T21:46:49.314Z,98225.42
2018-05-27T21:49:17.539Z,98223.23
2018-05-27T21:51:45.805Z,98222.30
2018-05-27T21:54:14.034Z,98219.22
2018-05-27T21:56:42.255Z,98220.00
2018-05-27T21:59:10.563Z,98223.00
2018-05-27T22:01:38.792Z,98225.14
2018-05-27T22:04:07.023Z,98220.98
2018-05-27T22:06:36.059Z,98214.97
2018-05-27T22:09:04.270Z,98214.53
2018-05-27T22:11:32.487Z,98218.45
2018-05-27T22:14:00.739Z,98226.06
2018-05-27T22:16:29.726Z,98220.90
2018-05-27T22:18:57.960Z,98225.70
2018-05-27T22:21:26.231Z,98222.38
2018-05-27T22:23:54.452Z,98219.34
2018-05-27T22:26:22.676Z,98217.58
2018-05-27T22:28:50.937Z,98216.83
2018-05-27T22:31:19.154Z,98228.85
2018-05-27T22:33:47.384Z,98232.06
2018-05-27T22:36:15.631Z,98229.64
2018-05-27T22:38:43.863Z,98234.96
2018-05-27T22:41:12.087Z,98229.84
2018-05-27T22:43:40.331Z,98225.44
2018-05-27T22:46:08.555Z,98217.37
2018-05-27T22:48:36.779Z,98212.34
2018-05-27T22:51:05.040Z,98209.79
2018-05-27T22:53:33.263Z,98209.08
2018-05-27T22:56:01.487Z,98201.36
2018-05-27T22:58:30.092Z,98190.38
2018-05-27T23:00:58.295Z,98196.80
2018-05-27T23:03:26.515Z,98199.47
2018-05-27T23:05:54.783Z,98193.72
2018-05-27T23:08:23.007Z,98193.73
2018-05-27T23:10:51.239Z,98190.40
2018-05-27T23:13:19.504Z,98190.36
2018-05-27T23:15:47.737Z,98192.38
2018-05-27T23:18:15.959Z,98189.20
2018-05-27T23:20:44.234Z,98185.91
2018-05-27T23:23:12.460Z,98188.06
2018-05-27T23:25:40.688Z,98184.07
2018-05-27T23:28:08.922Z,98183.91
2018-05-27T23:30:37.154Z,98186.53
2018-05-27T23:33:05.380Z,98178.05
2018-05-27T23:35:33.632Z,98173.94
2018-05-27T23:38:01.864Z,98175.97
2018-05-27T23:40:30.085Z,98177.33
2018-05-27T23:42:58.323Z,98175.48
2018-05-27T23:45:26.551Z,98174.78
2018-05-27T23:47:54.780Z,98177.80
2018-05-27T23:50:23.011Z,98184.47
2018-05-27T23:52:51.236Z,98181.50
2018-05-27T23:55:19.485Z,98184.27
2018-05-27T23:57:48.528Z,98188.09
